Time;durP1;ratioP1;P1;durP2;ratioP2;P2;SDS_P1;SDS_P2;PMS_P1;PMS_P2;Temp;Humidity;BMP_temperature;BMP_pressure;BME280_temperature;BME280_humidity;BME280_pressure;Samples;Min_cycle;Max_cycle;Signal;HPM_P1;HPM_P2
2023/08/23 00:01:20;;;;;;;13.47;9.60;;;;;;;18.83;92.27;101299.69;6072456;23;20367;-82
2023/08/23 00:03:54;;;;;;;14.67;9.90;;;;;;;18.81;91.91;101295.53;6070802;23;20418;-83
2023/08/23 00:06:24;;;;;;;16.30;10.13;;;;;;;18.62;91.51;101303.16;6046413;23;20419;-81
2023/08/23 00:08:53;;;;;;;10.73;9.07;;;;;;;18.56;93.00;101298.63;6071001;23;20379;-82
2023/08/23 00:11:22;;;;;;;14.47;10.43;;;;;;;18.45;92.64;101302.22;6071759;23;20868;-82
2023/08/23 00:13:51;;;;;;;14.03;9.93;;;;;;;18.35;94.75;101294.63;6070240;23;20434;-82
2023/08/23 00:16:20;;;;;;;10.80;9.80;;;;;;;18.24;95.66;101296.38;6145983;23;20440;-82
2023/08/23 00:18:50;;;;;;;14.70;9.60;;;;;;;18.15;96.06;101297.78;6161954;23;20403;-83
2023/08/23 00:21:23;;;;;;;12.73;10.97;;;;;;;18.15;96.82;101302.47;6161452;23;20809;-83
2023/08/23 00:23:52;;;;;;;11.33;10.10;;;;;;;18.31;96.44;101306.31;6163074;23;20394;-82
2023/08/23 00:26:21;;;;;;;14.37;9.80;;;;;;;18.23;96.50;101293.84;6130249;23;20426;-83
2023/08/23 00:28:50;;;;;;;13.40;11.10;;;;;;;18.33;96.48;101299.53;6105669;23;20388;-83
2023/08/23 00:31:19;;;;;;;11.57;10.43;;;;;;;18.36;96.60;101299.03;6147738;23;20412;-82
2023/08/23 00:33:49;;;;;;;14.17;10.80;;;;;;;18.41;96.38;101301.88;6148473;23;20395;-83
2023/08/23 00:36:19;;;;;;;12.77;11.30;;;;;;;18.31;97.05;101301.69;6151813;23;20390;-82
2023/08/23 00:38:48;;;;;;;15.23;12.30;;;;;;;18.32;96.57;101302.50;6151128;23;20333;-83
2023/08/23 00:41:18;;;;;;;13.80;11.37;;;;;;;18.22;97.31;101297.66;6118435;23;20377;-82
2023/08/23 00:43:47;;;;;;;13.73;11.83;;;;;;;18.14;98.38;101301.63;6107199;23;20434;-83
2023/08/23 00:46:17;;;;;;;12.43;11.17;;;;;;;18.33;97.63;101302.28;6133484;23;20440;-82
2023/08/23 00:48:47;;;;;;;13.57;10.80;;;;;;;18.29;98.01;101303.00;6145830;23;20349;-82
2023/08/23 00:51:18;;;;;;;14.43;10.90;;;;;;;18.11;98.99;101301.25;6153808;23;20675;-82
2023/08/23 00:53:49;;;;;;;12.07;10.57;;;;;;;18.09;99.58;101308.91;6128001;23;20440;-83
2023/08/23 00:56:20;;;;;;;13.17;11.80;;;;;;;17.95;99.82;101304.75;6127701;23;20419;-83
2023/08/23 00:58:50;;;;;;;20.03;11.77;;;;;;;17.84;100.00;101309.19;6128369;23;20413;-83
2023/08/23 01:01:20;;;;;;;14.23;11.07;;;;;;;17.86;100.00;101306.22;6153986;23;20350;-81
2023/08/23 01:03:51;;;;;;;14.67;11.93;;;;;;;17.77;100.00;101313.94;6153877;23;20457;-82
2023/08/23 01:06:32;;;;;;;16.00;14.30;;;;;;;17.81;100.00;101307.75;6153570;23;20407;-82
2023/08/23 01:09:14;;;;;;;16.10;12.40;;;;;;;17.83;100.00;101314.88;6126279;23;20452;-82
2023/08/23 01:11:49;;;;;;;14.87;11.37;;;;;;;17.84;100.00;101324.78;6154117;23;20412;-82
2023/08/23 01:14:38;;;;;;;13.20;11.83;;;;;;;17.94;100.00;101314.03;6152814;23;20337;-81
2023/08/23 01:17:08;;;;;;;16.27;12.07;;;;;;;18.27;99.24;101316.94;6127902;23;20470;-82
2023/08/23 01:19:48;;;;;;;14.40;11.50;;;;;;;18.27;99.20;101316.09;6152697;23;20371;-82
2023/08/23 01:22:20;;;;;;;13.70;12.30;;;;;;;18.12;99.36;101313.88;6150987;23;20401;-82
2023/08/23 01:24:55;;;;;;;14.10;12.10;;;;;;;18.01;99.86;101312.03;6139989;23;20381;-83
2023/08/23 01:27:25;;;;;;;12.90;10.80;;;;;;;17.94;100.00;101308.56;6131259;23;20387;-83
2023/08/23 01:29:54;;;;;;;15.47;12.07;;;;;;;17.96;100.00;101303.69;6105768;23;20404;-83
2023/08/23 01:32:34;;;;;;;14.00;11.10;;;;;;;17.92;100.00;101302.50;6134295;23;20437;-82
2023/08/23 01:35:11;;;;;;;19.83;12.43;;;;;;;17.93;100.00;101304.16;6127684;23;20400;-82
2023/08/23 01:37:44;;;;;;;16.83;10.40;;;;;;;17.84;100.00;101309.19;6119510;23;20417;-82
2023/08/23 01:40:16;;;;;;;13.70;11.47;;;;;;;17.59;100.00;101309.44;6109286;23;20394;-83
2023/08/23 01:42:49;;;;;;;12.60;11.37;;;;;;;17.68;100.00;101302.53;6107394;23;20483;-83
2023/08/23 01:45:20;;;;;;;13.10;11.67;;;;;;;17.72;100.00;101300.13;6106863;23;20430;-83
2023/08/23 01:47:49;;;;;;;16.27;13.93;;;;;;;17.69;100.00;101308.84;6105930;23;20385;-82
2023/08/23 01:50:19;;;;;;;12.40;10.80;;;;;;;17.56;100.00;101309.06;6106879;23;20415;-83
2023/08/23 01:52:48;;;;;;;17.70;12.40;;;;;;;17.62;100.00;101313.63;6106082;23;20850;-82
2023/08/23 01:55:20;;;;;;;15.23;10.67;;;;;;;17.65;100.00;101313.97;6106355;23;20513;-83
2023/08/23 01:57:50;;;;;;;14.53;11.63;;;;;;;17.62;100.00;101316.34;6133708;23;20379;-83
2023/08/23 02:00:19;;;;;;;20.20;12.27;;;;;;;17.76;100.00;101310.41;6110331;23;20458;-82
2023/08/23 02:02:49;;;;;;;12.00;10.80;;;;;;;17.78;100.00;101308.22;6105587;23;20493;-82
2023/08/23 02:05:18;;;;;;;19.23;12.30;;;;;;;17.71;100.00;101307.53;6105131;23;20411;-82
2023/08/23 02:07:48;;;;;;;10.70;9.60;;;;;;;17.75;100.00;101308.72;6104591;23;20434;-82
2023/08/23 02:10:23;;;;;;;13.20;11.87;;;;;;;17.44;100.00;101309.03;6104501;23;20430;-82
2023/08/23 02:12:53;;;;;;;15.17;12.10;;;;;;;17.76;100.00;101304.91;6131107;23;20474;-83
2023/08/23 02:15:23;;;;;;;14.23;12.17;;;;;;;17.52;100.00;101313.34;6104714;23;20412;-83
2023/08/23 02:17:56;;;;;;;16.60;13.37;;;;;;;17.66;100.00;101304.69;6108731;23;20766;-82
2023/08/23 02:20:37;;;;;;;15.37;12.30;;;;;;;17.44;100.00;101306.31;6132875;23;20350;-83
2023/08/23 02:23:06;;;;;;;16.40;12.97;;;;;;;17.59;100.00;101306.69;6136751;23;20427;-82
2023/08/23 02:25:37;;;;;;;15.67;12.83;;;;;;;17.39;100.00;101303.44;6149871;23;20381;-81
2023/08/23 02:28:06;;;;;;;16.00;13.27;;;;;;;17.47;100.00;101297.63;6126971;23;20433;-82
2023/08/23 02:30:36;;;;;;;17.60;13.40;;;;;;;17.49;100.00;101295.47;6104490;23;20800;-83
2023/08/23 02:33:05;;;;;;;16.23;12.20;;;;;;;17.32;100.00;101287.16;6103971;23;20418;-83
2023/08/23 02:35:40;;;;;;;13.23;11.90;;;;;;;17.58;100.00;101288.56;6126350;23;20393;-82
2023/08/23 02:38:09;;;;;;;13.20;11.80;;;;;;;17.69;100.00;101293.25;6127664;23;20405;-81
2023/08/23 02:40:44;;;;;;;16.30;12.17;;;;;;;17.76;100.00;101291.22;6152654;23;20350;-81
2023/08/23 02:43:14;;;;;;;13.97;11.33;;;;;;;17.70;100.00;101291.34;6148812;23;20417;-82
2023/08/23 02:45:43;;;;;;;15.63;11.20;;;;;;;17.52;100.00;101289.56;6148906;23;20385;-81
2023/08/23 02:48:13;;;;;;;20.07;12.47;;;;;;;17.52;100.00;101286.81;6148564;23;20376;-83
2023/08/23 02:50:44;;;;;;;16.53;11.67;;;;;;;17.58;100.00;101283.09;6149136;23;20379;-82
2023/08/23 02:53:13;;;;;;;13.97;12.30;;;;;;;17.74;100.00;101279.69;6149223;23;20361;-82
2023/08/23 02:55:44;;;;;;;13.80;11.80;;;;;;;17.72;100.00;101287.28;6123580;23;20454;-82
2023/08/23 02:58:13;;;;;;;12.47;11.17;;;;;;;17.86;100.00;101293.34;6124035;23;20377;-82
2023/08/23 03:00:43;;;;;;;12.87;10.90;;;;;;;17.85;100.00;101297.16;6149512;23;20390;-81
2023/08/23 03:03:12;;;;;;;15.50;10.73;;;;;;;17.67;100.00;101298.13;6125305;23;20381;-83
2023/08/23 03:05:41;;;;;;;13.03;11.00;;;;;;;17.77;100.00;101290.13;6124318;23;20440;-83
2023/08/23 03:08:11;;;;;;;13.27;10.73;;;;;;;17.66;100.00;101293.75;6115354;23;20423;-83
2023/08/23 03:10:40;;;;;;;15.23;12.43;;;;;;;17.64;100.00;101295.88;6150437;23;20353;-81
2023/08/23 03:13:11;;;;;;;13.23;10.97;;;;;;;17.50;100.00;101294.41;6151323;23;20383;-81
2023/08/23 03:15:40;;;;;;;12.80;10.00;;;;;;;17.61;100.00;101290.88;6145929;23;20395;-83
2023/08/23 03:18:10;;;;;;;11.27;10.13;;;;;;;17.71;100.00;101296.59;6125884;23;20419;-83
2023/08/23 03:20:39;;;;;;;13.03;11.60;;;;;;;17.67;100.00;101287.16;6151989;23;20365;-83
2023/08/23 03:23:09;;;;;;;11.60;10.00;;;;;;;17.67;100.00;101289.91;6152623;23;20373;-82
2023/08/23 03:25:38;;;;;;;11.27;10.23;;;;;;;17.89;100.00;101281.91;6127438;23;20461;-82
2023/08/23 03:28:08;;;;;;;11.37;10.27;;;;;;;17.92;100.00;101292.38;6127441;23;20388;-82
2023/08/23 03:30:40;;;;;;;11.10;10.00;;;;;;;17.90;100.00;101293.69;6126795;23;20384;-82
2023/08/23 03:33:09;;;;;;;10.67;9.40;;;;;;;17.92;100.00;101288.81;6126561;23;20377;-82
2023/08/23 03:35:39;;;;;;;12.57;9.50;;;;;;;18.03;100.00;101287.94;6125164;23;20432;-82
2023/08/23 03:38:09;;;;;;;12.63;11.30;;;;;;;17.75;99.66;101292.28;6123424;23;20411;-83
2023/08/23 03:40:38;;;;;;;11.57;9.90;;;;;;;17.65;100.00;101292.06;6151173;23;20381;-83
2023/08/23 03:43:07;;;;;;;11.30;9.50;;;;;;;17.83;100.00;101292.97;6126100;23;20456;-83
2023/08/23 03:45:47;;;;;;;14.77;10.23;;;;;;;17.98;100.00;101301.53;6116526;23;20420;-83
2023/08/23 03:48:17;;;;;;;15.97;10.87;;;;;;;17.81;100.00;101298.72;6121448;23;20398;-83
2023/08/23 03:50:46;;;;;;;13.50;9.00;;;;;;;17.72;100.00;101292.75;6109836;23;20380;-83
2023/08/23 03:53:15;;;;;;;10.63;9.63;;;;;;;17.93;100.00;101301.41;6133880;23;20366;-82
2023/08/23 03:55:45;;;;;;;13.80;10.13;;;;;;;17.81;100.00;101291.31;6134832;23;20382;-83
2023/08/23 03:58:14;;;;;;;12.27;10.90;;;;;;;17.97;100.00;101302.59;6135389;23;20353;-83
2023/08/23 04:00:50;;;;;;;11.40;9.97;;;;;;;17.91;100.00;101300.84;6109095;23;20392;-83
2023/08/23 04:03:20;;;;;;;15.10;11.60;;;;;;;17.66;100.00;101303.84;6138381;23;20407;-83
2023/08/23 04:05:50;;;;;;;17.50;9.30;;;;;;;17.76;100.00;101293.13;6115928;23;20449;-83
2023/08/23 04:08:19;;;;;;;13.93;9.00;;;;;;;17.69;100.00;101287.78;6108610;23;20411;-84
2023/08/23 04:10:50;;;;;;;10.40;9.60;;;;;;;18.03;99.06;101294.25;6147852;23;20446;-83
2023/08/23 04:13:19;;;;;;;11.50;10.40;;;;;;;18.06;99.64;101287.44;6122415;23;20410;-82
2023/08/23 04:15:51;;;;;;;12.00;10.90;;;;;;;17.90;99.39;101290.97;6122086;23;20392;-83
2023/08/23 04:18:20;;;;;;;11.80;9.60;;;;;;;18.09;98.46;101295.22;6117670;23;20394;-81
2023/08/23 04:21:00;;;;;;;10.63;9.67;;;;;;;18.17;100.00;101301.13;6140759;23;20369;-83
2023/08/23 04:23:30;;;;;;;11.97;9.57;;;;;;;18.57;97.31;101292.94;6144585;23;20375;-83
2023/08/23 04:26:00;;;;;;;11.03;9.90;;;;;;;18.79;94.34;101298.53;6117354;23;20481;-83
2023/08/23 04:28:29;;;;;;;12.63;9.30;;;;;;;18.71;95.67;101290.72;6132009;23;20369;-82
2023/08/23 04:31:03;;;;;;;35.47;10.33;;;;;;;19.02;93.39;101287.44;6144114;23;20390;-83
2023/08/23 04:33:54;;;;;;;18.60;9.13;;;;;;;19.29;91.01;101292.25;6108086;23;20484;-83
2023/08/23 04:36:23;;;;;;;11.67;8.90;;;;;;;19.88;88.01;101293.44;6135228;23;20479;-83
2023/08/23 04:38:52;;;;;;;10.73;9.57;;;;;;;19.67;87.95;101291.47;6113061;23;20460;-83
2023/08/23 04:41:23;;;;;;;11.53;8.33;;;;;;;19.76;87.53;101299.03;6138686;23;20369;-83
2023/08/23 04:43:52;;;;;;;11.53;9.87;;;;;;;19.65;88.30;101297.25;6138088;23;20368;-83
2023/08/23 04:46:23;;;;;;;11.43;8.83;;;;;;;20.13;85.90;101304.75;6143424;23;20397;-82
2023/08/23 04:48:53;;;;;;;12.80;9.43;;;;;;;20.13;85.33;101298.44;6123270;23;20408;-83
2023/08/23 04:51:23;;;;;;;12.17;10.43;;;;;;;19.84;86.47;101306.03;6124044;23;20417;-82
2023/08/23 04:53:53;;;;;;;16.70;8.73;;;;;;;19.77;87.33;101305.34;6124128;23;20399;-82
2023/08/23 04:56:23;;;;;;;11.10;9.80;;;;;;;20.82;82.51;101294.84;6111303;23;20397;-83
2023/08/23 04:58:53;;;;;;;10.53;8.37;;;;;;;21.90;76.48;101298.16;6107012;23;20389;-82
2023/08/23 05:01:24;;;;;;;10.20;8.10;;;;;;;22.89;70.90;101306.28;6106605;23;20400;-83
2023/08/23 05:03:53;;;;;;;8.90;7.97;;;;;;;23.53;66.87;101302.97;6105972;23;20850;-83
2023/08/23 05:06:24;;;;;;;9.33;7.50;;;;;;;23.96;65.29;101307.03;6109386;23;20457;-82
2023/08/23 05:08:55;;;;;;;9.93;7.40;;;;;;;24.32;63.29;101306.91;6127541;23;20390;-83
2023/08/23 05:11:28;;;;;;;11.00;8.30;;;;;;;24.66;61.73;101310.59;6152372;23;20381;-82
2023/08/23 05:14:00;;;;;;;10.83;8.70;;;;;;;24.88;60.40;101305.53;6122199;23;20407;-84
2023/08/23 05:16:32;;;;;;;9.80;8.50;;;;;;;24.50;61.29;101309.84;6108473;23;20445;-84
2023/08/23 05:19:01;;;;;;;10.77;8.13;;;;;;;23.10;66.47;101311.81;6119501;23;20403;-83
2023/08/23 05:21:31;;;;;;;10.30;9.00;;;;;;;21.98;72.59;101308.69;6123129;23;20401;-83
2023/08/23 05:24:01;;;;;;;9.20;8.07;;;;;;;21.24;76.82;101300.50;6149320;23;20373;-83
2023/08/23 05:26:33;;;;;;;10.03;9.13;;;;;;;20.71;78.97;101306.84;6138272;23;20431;-84
2023/08/23 05:29:03;;;;;;;13.63;8.37;;;;;;;20.47;80.37;101305.47;6109137;23;20406;-84
2023/08/23 05:31:34;;;;;;;13.13;8.13;;;;;;;20.49;82.11;101307.94;6137017;23;20450;-83
2023/08/23 05:34:03;;;;;;;10.40;7.90;;;;;;;20.41;82.15;101300.16;6109687;23;20464;-84
2023/08/23 05:36:33;;;;;;;14.30;8.33;;;;;;;20.24;83.57;101309.28;6110303;23;20393;-84
2023/08/23 05:39:06;;;;;;;10.87;9.77;;;;;;;20.30;83.32;101304.69;6111245;23;20388;-84
2023/08/23 05:41:35;;;;;;;12.73;9.43;;;;;;;20.56;82.60;101309.44;6135561;23;20357;-84
2023/08/23 05:44:05;;;;;;;10.40;8.43;;;;;;;20.40;83.37;101307.59;6146112;23;20389;-83
2023/08/23 05:46:36;;;;;;;11.63;8.73;;;;;;;20.47;81.63;101315.66;6112358;23;20445;-83
2023/08/23 05:49:05;;;;;;;11.00;9.33;;;;;;;20.27;81.08;101317.03;6145227;23;20372;-83
2023/08/23 05:51:34;;;;;;;14.20;9.33;;;;;;;20.18;82.37;101318.56;6146081;23;20406;-83
2023/08/23 05:54:04;;;;;;;17.53;10.17;;;;;;;20.18;83.44;101313.06;6121693;23;20377;-83
2023/08/23 05:56:33;;;;;;;19.43;11.03;;;;;;;20.40;83.26;101318.59;6144611;23;20405;-83
2023/08/23 05:59:02;;;;;;;12.90;8.60;;;;;;;20.49;82.13;101307.94;6145732;23;20365;-83
2023/08/23 06:01:32;;;;;;;10.90;8.23;;;;;;;20.62;81.30;101305.63;6146183;23;20368;-82
2023/08/23 06:04:03;;;;;;;13.83;10.47;;;;;;;20.62;81.03;101304.81;6147312;23;20346;-84
2023/08/23 06:06:33;;;;;;;15.33;10.40;;;;;;;20.90;80.17;101312.81;6148296;23;20437;-82
2023/08/23 06:09:02;;;;;;;13.10;9.93;;;;;;;21.12;78.57;101319.06;6142322;23;20385;-83
2023/08/23 06:11:32;;;;;;;10.00;9.00;;;;;;;21.13;78.41;101309.75;6108131;23;20460;-84
2023/08/23 06:14:16;;;;;;;8.87;8.13;;;;;;;21.25;77.83;101312.34;6114820;23;20389;-84
2023/08/23 06:16:45;;;;;;;12.00;9.23;;;;;;;21.34;76.11;101309.91;6094777;23;20374;-85
2023/08/23 06:19:44;;;;;;;9.80;7.80;;;;;;;21.27;77.53;101301.03;6119833;23;20365;-86
2023/08/23 06:22:21;;;;;;;9.47;8.53;;;;;;;21.17;76.14;101302.63;6099150;23;20387;-86
2023/08/23 06:25:05;;;;;;;14.93;10.93;;;;;;;21.44;76.97;101307.25;6099270;23;20409;-87
2023/08/23 06:27:37;;;;;;;9.17;8.23;;;;;;;21.45;75.52;101317.13;6076296;23;20391;-86
2023/08/23 06:30:08;;;;;;;11.37;10.00;;;;;;;21.50;76.56;101317.19;6124105;23;20338;-85
2023/08/23 06:32:39;;;;;;;12.73;9.57;;;;;;;21.59;74.84;101315.63;6122490;23;20375;-86
2023/08/23 06:35:26;;;;;;;10.90;8.67;;;;;;;21.55;75.09;101315.28;6096217;23;20434;-84
2023/08/23 06:38:05;;;;;;;10.90;9.10;;;;;;;21.84;75.07;101318.50;6071182;23;20402;-86
2023/08/23 06:40:37;;;;;;;8.73;7.60;;;;;;;21.96;72.98;101323.84;6070920;23;20407;-84
2023/08/23 06:43:17;;;;;;;10.60;8.87;;;;;;;21.97;73.58;101323.59;6119357;23;20331;-83
2023/08/23 06:45:52;;;;;;;7.90;7.10;;;;;;;21.92;72.10;101322.69;6095484;23;20451;-84
2023/08/23 06:48:23;;;;;;;8.67;7.77;;;;;;;22.06;71.29;101330.25;6119448;23;20414;-83
2023/08/23 06:50:58;;;;;;;10.60;8.40;;;;;;;21.99;72.71;101329.66;6094082;23;20390;-84
2023/08/23 06:53:28;;;;;;;10.87;7.67;;;;;;;22.24;71.95;101331.69;6094417;23;20386;-86
2023/08/23 06:55:57;;;;;;;10.00;8.43;;;;;;;22.39;70.78;101325.41;6095303;23;20413;-85
2023/08/23 06:58:32;;;;;;;10.83;7.70;;;;;;;22.34;70.53;101323.47;6095126;23;20401;-83
2023/08/23 07:01:05;;;;;;;8.33;7.50;;;;;;;22.30;69.95;101327.03;6119944;23;20375;-84
2023/08/23 07:03:35;;;;;;;12.50;8.70;;;;;;;22.38;70.56;101321.00;6095926;23;20438;-85
2023/08/23 07:06:06;;;;;;;13.50;7.70;;;;;;;22.54;70.20;101326.31;6124156;23;20466;-86
2023/08/23 07:08:36;;;;;;;9.23;7.70;;;;;;;22.73;69.29;101323.91;6123990;23;20388;-86
2023/08/23 07:11:06;;;;;;;8.60;7.70;;;;;;;22.87;68.92;101322.28;6096543;23;20397;-82
2023/08/23 07:13:36;;;;;;;13.93;7.67;;;;;;;22.91;68.45;101323.38;6093003;23;20426;-83
2023/08/23 07:16:06;;;;;;;11.50;8.20;;;;;;;22.94;68.49;101331.13;6141904;23;20389;-83
2023/08/23 07:18:35;;;;;;;6.43;5.93;;;;;;;23.01;66.23;101325.31;6123531;23;20490;-83
2023/08/23 07:21:07;;;;;;;8.80;6.33;;;;;;;23.16;66.53;101332.78;6122194;23;20410;-86
2023/08/23 07:23:37;;;;;;;7.50;6.90;;;;;;;23.22;65.32;101334.47;6125148;23;20411;-85
2023/08/23 07:26:06;;;;;;;7.63;5.90;;;;;;;23.08;65.05;101331.41;6126725;23;20482;-84
2023/08/23 07:28:36;;;;;;;8.73;6.53;;;;;;;23.35;64.40;101336.66;6124412;23;20398;-87
2023/08/23 07:31:06;;;;;;;10.93;6.37;;;;;;;23.49;64.94;101335.03;6153007;23;20365;-85
2023/08/23 07:33:35;;;;;;;5.90;5.40;;;;;;;23.63;64.27;101338.03;6126815;23;20391;-87
2023/08/23 07:36:07;;;;;;;6.03;5.53;;;;;;;23.81;63.32;101341.09;6127785;23;20506;-86
2023/08/23 07:38:37;;;;;;;11.97;7.03;;;;;;;23.90;62.48;101340.50;6126742;23;20452;-82
2023/08/23 07:41:06;;;;;;;6.40;5.47;;;;;;;23.79;62.23;101342.44;6124438;23;20407;-83
2023/08/23 07:43:37;;;;;;;7.00;5.57;;;;;;;24.08;61.43;101342.66;6122477;23;20404;-86
2023/08/23 07:46:07;;;;;;;6.30;4.77;;;;;;;24.11;59.74;101347.59;6113089;23;20418;-79
2023/08/23 07:48:38;;;;;;;8.50;6.40;;;;;;;24.21;59.48;101340.16;6136041;23;20374;-79
2023/08/23 07:51:08;;;;;;;9.07;6.03;;;;;;;24.31;58.03;101347.56;6136575;23;20356;-80
2023/08/23 07:53:38;;;;;;;6.80;6.00;;;;;;;24.15;58.04;101351.50;6139738;23;20360;-79
2023/08/23 07:56:07;;;;;;;11.97;6.30;;;;;;;23.84;58.25;101345.19;6135732;23;20455;-79
2023/08/23 07:58:38;;;;;;;6.70;6.00;;;;;;;23.68;59.73;101349.91;6134724;23;20731;-81
2023/08/23 08:01:07;;;;;;;10.53;7.97;;;;;;;23.81;59.89;101351.31;6113091;23;20410;-80
2023/08/23 08:03:37;;;;;;;5.67;5.10;;;;;;;23.79;59.64;101354.34;6134847;23;20379;-80
2023/08/23 08:06:07;;;;;;;6.97;5.47;;;;;;;23.91;58.59;101356.81;6138942;23;20458;-83
2023/08/23 08:08:39;;;;;;;5.77;5.27;;;;;;;23.87;58.02;101354.88;6138568;23;20421;-83
2023/08/23 08:11:08;;;;;;;8.13;5.57;;;;;;;23.81;58.28;101352.13;6142160;23;20370;-82
2023/08/23 08:13:38;;;;;;;7.67;5.60;;;;;;;23.99;58.89;101355.41;6144167;23;20432;-83
2023/08/23 08:16:08;;;;;;;21.20;10.33;;;;;;;24.29;58.92;101348.97;6118931;23;20426;-83
2023/08/23 08:18:37;;;;;;;13.07;5.20;;;;;;;24.29;57.19;101352.56;6149097;23;20395;-83
2023/08/23 08:21:10;;;;;;;7.13;4.90;;;;;;;24.52;57.52;101346.38;6143408;23;20606;-84
2023/08/23 08:23:40;;;;;;;7.90;4.50;;;;;;;24.89;56.04;101351.47;6138690;23;20966;-83
2023/08/23 08:26:11;;;;;;;7.60;4.90;;;;;;;24.88;56.07;101352.59;6143408;23;20423;-83
2023/08/23 08:28:43;;;;;;;6.03;4.83;;;;;;;25.10;55.56;101347.44;6149628;23;20422;-83
2023/08/23 08:31:13;;;;;;;5.57;4.63;;;;;;;25.19;55.30;101358.72;6122794;23;20397;-83
2023/08/23 08:33:54;;;;;;;5.60;4.40;;;;;;;24.95;55.86;101360.56;6118645;23;20414;-83
2023/08/23 08:36:27;;;;;;;8.03;5.60;;;;;;;24.91;56.43;101365.03;6112885;23;20437;-83
2023/08/23 08:38:56;;;;;;;10.00;7.33;;;;;;;24.90;55.98;101358.66;6138521;23;20464;-83
2023/08/23 08:41:26;;;;;;;6.43;4.90;;;;;;;24.79;55.97;101356.19;6138183;23;20417;-84
2023/08/23 08:43:56;;;;;;;7.00;5.63;;;;;;;24.50;56.73;101364.38;6115063;23;20442;-84
2023/08/23 08:46:26;;;;;;;11.33;4.83;;;;;;;24.62;57.70;101362.09;6112908;23;20443;-84
2023/08/23 08:48:55;;;;;;;7.20;5.30;;;;;;;24.87;56.76;101364.78;6139180;23;20349;-84
2023/08/23 08:51:28;;;;;;;7.70;5.20;;;;;;;25.11;56.70;101359.34;6139648;23;20404;-83
2023/08/23 08:53:57;;;;;;;8.47;5.80;;;;;;;25.02;56.46;101364.69;6143867;23;20365;-83
2023/08/23 08:56:33;;;;;;;7.50;5.43;;;;;;;25.08;57.19;101363.50;6145730;23;20397;-83
2023/08/23 08:59:03;;;;;;;7.37;6.20;;;;;;;25.20;55.45;101362.31;6114347;23;20407;-83
2023/08/23 09:01:37;;;;;;;6.43;5.43;;;;;;;25.30;55.87;101363.09;6114967;23;20718;-84
2023/08/23 09:04:08;;;;;;;13.53;5.90;;;;;;;25.11;55.59;101364.88;6136682;23;20700;-83
2023/08/23 09:06:40;;;;;;;7.33;6.17;;;;;;;25.34;56.07;101358.63;6137128;23;20489;-84
2023/08/23 09:09:10;;;;;;;6.13;5.53;;;;;;;25.29;55.89;101361.41;6138306;23;20410;-83
2023/08/23 09:11:53;;;;;;;10.10;6.10;;;;;;;25.48;54.94;101356.00;6118996;23;20376;-83
2023/08/23 09:14:25;;;;;;;7.87;5.70;;;;;;;25.58;54.91;101363.44;6138990;23;20395;-83
2023/08/23 09:16:54;;;;;;;5.27;4.63;;;;;;;25.48;55.32;101364.31;6112019;23;20414;-83
2023/08/23 09:19:24;;;;;;;7.07;5.60;;;;;;;25.45;54.91;101364.91;6112855;23;20430;-84
2023/08/23 09:21:55;;;;;;;8.40;4.70;;;;;;;25.93;53.98;101361.16;6110963;23;20421;-83
2023/08/23 09:24:25;;;;;;;7.10;4.90;;;;;;;26.10;53.26;101366.22;6137101;23;20383;-83
2023/08/23 09:26:57;;;;;;;6.20;4.90;;;;;;;26.49;51.67;101360.50;6113306;23;20434;-82
2023/08/23 09:29:27;;;;;;;7.03;5.50;;;;;;;26.04;52.43;101370.19;6111820;23;20434;-83
2023/08/23 09:32:00;;;;;;;8.60;4.60;;;;;;;25.72;52.27;101361.63;6137360;23;20486;-83
2023/08/23 09:34:30;;;;;;;8.73;4.60;;;;;;;25.79;51.61;101370.44;6111090;23;20407;-83
2023/08/23 09:37:08;;;;;;;5.67;4.37;;;;;;;26.00;52.09;101368.31;6147448;23;20753;-83
2023/08/23 09:39:38;;;;;;;7.20;4.70;;;;;;;26.33;52.24;101365.44;6149200;23;20350;-84
2023/08/23 09:42:13;;;;;;;4.73;4.23;;;;;;;26.08;51.01;101374.03;6119441;23;20414;-83
2023/08/23 09:44:46;;;;;;;6.80;4.37;;;;;;;26.30;50.82;101374.34;6113731;23;20456;-83
2023/08/23 09:47:21;;;;;;;6.80;4.83;;;;;;;26.44;50.50;101366.13;6119781;23;20426;-83
2023/08/23 09:49:51;;;;;;;6.70;5.10;;;;;;;26.38;51.24;101370.91;6125792;23;20418;-83
2023/08/23 09:52:24;;;;;;;11.33;5.60;;;;;;;26.66;51.03;101368.34;6151526;23;20363;-84
2023/08/23 09:54:58;;;;;;;5.17;3.97;;;;;;;26.62;50.29;101364.53;6120726;23;20486;-85
2023/08/23 09:57:44;;;;;;;4.40;3.93;;;;;;;26.54;50.58;101371.53;6140347;23;20367;-84
2023/08/23 10:00:15;;;;;;;9.93;4.23;;;;;;;26.46;49.93;101374.16;6113927;23;20469;-84
2023/08/23 10:02:47;;;;;;;5.93;3.83;;;;;;;26.18;51.19;101370.31;6140141;23;20378;-84
2023/08/23 10:05:19;;;;;;;6.80;4.87;;;;;;;25.81;51.01;101362.66;6140328;23;20410;-84
2023/08/23 10:07:54;;;;;;;6.63;4.10;;;;;;;25.80;51.95;101361.00;6117166;23;20426;-83
2023/08/23 10:10:24;;;;;;;4.67;4.00;;;;;;;25.86;51.32;101365.38;6122463;23;20398;-85
2023/08/23 10:12:57;;;;;;;8.37;4.20;;;;;;;25.85;51.29;101358.19;6148883;23;20401;-84
2023/08/23 10:15:30;;;;;;;3.90;3.53;;;;;;;26.13;50.99;101364.81;6120152;23;20413;-84
2023/08/23 10:18:03;;;;;;;5.20;3.37;;;;;;;26.10;50.80;101369.00;6111662;23;20383;-83
2023/08/23 10:20:36;;;;;;;8.80;4.53;;;;;;;26.06;50.40;101356.00;6097265;23;20427;-83
2023/08/23 10:23:12;;;;;;;10.03;5.93;;;;;;;26.10;49.35;101363.44;6097587;23;20399;-84
2023/08/23 10:25:44;;;;;;;5.07;3.30;;;;;;;26.21;49.60;101362.25;6122673;23;20434;-85
2023/08/23 10:28:16;;;;;;;7.60;3.57;;;;;;;26.31;48.15;101367.69;6097852;23;20430;-84
2023/08/23 10:30:48;;;;;;;4.97;3.27;;;;;;;26.61;47.24;101362.88;6097956;23;20400;-84
2023/08/23 10:33:19;;;;;;;7.03;2.50;;;;;;;26.62;45.37;101364.53;6097494;23;20415;-83
2023/08/23 10:35:49;;;;;;;3.37;2.70;;;;;;;26.65;47.17;101363.91;6098137;23;20467;-83
2023/08/23 10:38:22;;;;;;;7.90;3.10;;;;;;;26.80;45.82;101358.16;6098246;23;20415;-85
2023/08/23 10:40:51;;;;;;;8.47;3.73;;;;;;;26.55;46.56;101361.28;6098602;23;20396;-84
2023/08/23 10:43:21;;;;;;;8.23;3.00;;;;;;;26.90;46.23;101363.59;6098493;23;20962;-84
2023/08/23 10:45:56;;;;;;;3.27;2.33;;;;;;;26.77;46.40;101361.53;6097900;23;20439;-84
2023/08/23 10:48:26;;;;;;;3.40;2.70;;;;;;;26.19;47.09;101355.31;6086666;23;20502;-85
2023/08/23 10:50:56;;;;;;;6.77;3.20;;;;;;;26.20;46.52;101357.78;6085411;23;20403;-83
2023/08/23 10:53:27;;;;;;;4.40;2.80;;;;;;;26.10;47.10;101357.91;6084661;23;20411;-84
2023/08/23 10:56:01;;;;;;;5.10;2.87;;;;;;;26.44;46.70;101348.63;6083822;23;20423;-84
2023/08/23 10:58:32;;;;;;;3.87;2.60;;;;;;;26.96;46.25;101353.25;6088964;23;20479;-84
2023/08/23 11:01:02;;;;;;;5.70;2.83;;;;;;;27.10;44.63;101363.28;6089058;23;20396;-84
2023/08/23 11:03:33;;;;;;;4.10;2.97;;;;;;;26.72;45.44;101353.28;6089447;23;20411;-83
2023/08/23 11:06:03;;;;;;;3.00;2.07;;;;;;;26.92;45.64;101344.66;6113022;23;20900;-84
2023/08/23 11:08:34;;;;;;;5.60;3.70;;;;;;;27.15;46.20;101343.78;6103562;23;20423;-84
2023/08/23 11:11:07;;;;;;;5.87;3.47;;;;;;;26.95;46.71;101349.63;6112359;23;20373;-82
2023/08/23 11:13:36;;;;;;;5.67;4.30;;;;;;;26.85;45.37;101352.53;6123205;23;20391;-84
2023/08/23 11:16:07;;;;;;;7.73;5.20;;;;;;;26.92;45.51;101339.09;6121029;23;20404;-84
2023/08/23 11:18:37;;;;;;;3.50;2.27;;;;;;;26.31;45.26;101345.47;6127436;23;20431;-84
2023/08/23 11:21:06;;;;;;;4.83;3.30;;;;;;;26.58;46.11;101344.00;6152434;23;20458;-83
2023/08/23 11:23:39;;;;;;;3.13;2.80;;;;;;;26.66;45.22;101346.13;6152678;23;20363;-83
2023/08/23 11:26:09;;;;;;;9.97;3.30;;;;;;;27.06;45.42;101345.56;6127385;23;20435;-83
2023/08/23 11:28:39;;;;;;;5.47;3.13;;;;;;;27.41;44.74;101335.00;6152203;23;20410;-83
2023/08/23 11:31:09;;;;;;;2.70;2.30;;;;;;;27.75;43.95;101335.50;6143592;23;20394;-83
2023/08/23 11:33:45;;;;;;;4.90;3.07;;;;;;;27.86;42.14;101339.75;6112667;23;20416;-84